Time;durP1;ratioP1;P1;durP2;ratioP2;P2;SDS_P1;SDS_P2;PMS_P1;PMS_P2;Temp;Humidity;BMP_temperature;BMP_pressure;BME280_temperature;BME280_humidity;BME280_pressure;Samples;Min_cycle;Max_cycle;Signal;HPM_P1;HPM_P2
2024/01/24 00:00:05;;;;;;;26.93;18.67;;;;;;;2.34;61.13;94377.81;523860;28;1086;-64
2024/01/24 00:00:20;;;;;;;28.33;18.70;;;;;;;2.35;61.06;94375.84;523927;28;855;-64
2024/01/24 00:00:36;;;;;;;28.30;18.53;;;;;;;2.36;60.98;94380.81;523920;28;823;-64
2024/01/24 00:00:51;;;;;;;29.47;20.53;;;;;;;2.35;61.16;94376.59;524006;28;855;-64
2024/01/24 00:01:07;;;;;;;34.23;23.47;;;;;;;2.34;60.45;94369.63;523994;28;788;-64
2024/01/24 00:01:23;;;;;;;36.47;25.40;;;;;;;2.34;60.33;94377.06;524091;28;800;-64
2024/01/24 00:01:39;;;;;;;44.75;29.90;;;;;;;2.35;60.47;94378.56;524043;28;868;-64
2024/01/24 00:01:54;;;;;;;49.13;33.45;;;;;;;2.34;60.74;94380.53;523970;28;792;-64
2024/01/24 00:02:09;;;;;;;49.43;33.97;;;;;;;2.35;60.51;94381.28;524031;28;792;-64
2024/01/24 00:02:25;;;;;;;51.20;34.28;;;;;;;2.35;60.63;94373.13;523927;28;864;-64
2024/01/24 00:02:40;;;;;;;51.67;34.53;;;;;;;2.36;60.39;94374.63;524057;28;819;-64
2024/01/24 00:02:56;;;;;;;56.80;37.40;;;;;;;2.36;60.25;94375.34;523966;28;835;-64
2024/01/24 00:03:11;;;;;;;62.10;40.38;;;;;;;2.36;60.40;94388.97;524088;28;828;-64
2024/01/24 00:03:27;;;;;;;62.97;41.70;;;;;;;2.37;60.54;94381.56;523956;28;922;-64
2024/01/24 00:03:42;;;;;;;62.67;41.03;;;;;;;2.38;60.24;94378.38;524048;28;1096;-65
2024/01/24 00:03:58;;;;;;;57.42;38.15;;;;;;;2.36;60.31;94383.53;526078;28;815;-64
2024/01/24 00:04:14;;;;;;;55.43;36.87;;;;;;;2.35;59.93;94381.28;526061;28;783;-64
2024/01/24 00:04:29;;;;;;;53.65;35.63;;;;;;;2.34;60.18;94377.81;526174;28;945;-64
2024/01/24 00:04:45;;;;;;;57.50;36.93;;;;;;;2.32;60.30;94374.06;524434;28;1179;-64
2024/01/24 00:05:00;;;;;;;61.55;39.00;;;;;;;2.33;60.19;94376.31;523974;28;791;-64
2024/01/24 00:05:16;;;;;;;57.33;38.13;;;;;;;2.33;59.77;94383.75;523722;28;1626;-65
2024/01/24 00:05:31;;;;;;;57.13;38.13;;;;;;;2.31;59.83;94378.78;524076;28;939;-64
2024/01/24 00:05:47;;;;;;;57.23;38.13;;;;;;;2.30;59.49;94383.47;523957;28;839;-64
2024/01/24 00:06:02;;;;;;;51.30;35.58;;;;;;;2.30;60.23;94382.72;524043;28;875;-64
2024/01/24 00:06:18;;;;;;;51.00;34.88;;;;;;;2.30;59.86;94382.72;524021;28;903;-64
2024/01/24 00:06:33;;;;;;;54.23;36.27;;;;;;;2.32;59.91;94382.25;523962;28;768;-64
2024/01/24 00:06:49;;;;;;;55.17;36.03;;;;;;;2.33;60.10;94386.47;523983;28;795;-64
2024/01/24 00:07:05;;;;;;;55.97;35.80;;;;;;;2.34;60.00;94388.72;523995;28;804;-64
2024/01/24 00:07:20;;;;;;;58.38;37.53;;;;;;;2.35;59.98;94384.78;524092;28;782;-64
2024/01/24 00:07:35;;;;;;;60.03;38.97;;;;;;;2.35;59.54;94389.47;523993;28;821;-64
2024/01/24 00:07:51;;;;;;;61.20;40.22;;;;;;;2.20;59.70;94370.44;523907;28;851;-64
2024/01/24 00:08:07;;;;;;;63.60;41.13;;;;;;;2.37;59.77;94387.78;523953;28;1743;-64
2024/01/24 00:08:22;;;;;;;61.53;41.03;;;;;;;2.38;59.75;94385.81;524090;28;827;-64
2024/01/24 00:08:37;;;;;;;58.63;40.20;;;;;;;2.39;59.58;94392.75;524008;28;784;-64
2024/01/24 00:08:53;;;;;;;58.83;39.88;;;;;;;2.38;59.55;94388.53;524026;28;792;-63
2024/01/24 00:09:08;;;;;;;59.83;40.30;;;;;;;2.38;59.72;94393.97;523937;28;827;-64
2024/01/24 00:09:24;;;;;;;66.78;43.58;;;;;;;2.38;59.87;94393.97;523985;28;792;-64
2024/01/24 00:09:39;;;;;;;83.73;53.43;;;;;;;2.38;60.23;94392.00;524073;28;870;-64
2024/01/24 00:09:55;;;;;;;92.75;58.72;;;;;;;2.38;59.76;94394.75;523913;28;792;-64
2024/01/24 00:10:11;;;;;;;90.30;55.93;;;;;;;2.37;59.95;94390.50;524086;28;787;-64
2024/01/24 00:10:26;;;;;;;86.20;54.08;;;;;;;2.39;59.90;94395.47;523870;28;1025;-64
2024/01/24 00:10:42;;;;;;;82.03;52.47;;;;;;;2.38;59.69;94389.28;523951;28;863;-64
2024/01/24 00:10:57;;;;;;;88.38;53.25;;;;;;;2.39;59.58;94390.78;523987;28;856;-64
2024/01/24 00:11:12;;;;;;;96.57;55.97;;;;;;;2.40;59.77;94394.25;524030;28;998;-64
2024/01/24 00:11:29;;;;;;;99.10;59.38;;;;;;;2.40;59.77;94386.84;523990;28;914;-64
2024/01/24 00:11:44;;;;;;;101.05;62.95;;;;;;;2.41;59.74;94391.06;523974;28;857;-64
2024/01/24 00:12:00;;;;;;;100.68;63.03;;;;;;;2.42;59.83;94389.84;523995;28;784;-63
2024/01/24 00:12:15;;;;;;;96.00;60.70;;;;;;;2.43;59.77;94390.56;524030;28;819;-64
2024/01/24 00:12:31;;;;;;;99.87;60.67;;;;;;;2.44;59.47;94392.84;524073;28;855;-64
2024/01/24 00:12:46;;;;;;;107.18;64.10;;;;;;;2.44;60.01;94386.63;523992;28;1082;-64
2024/01/24 00:13:02;;;;;;;110.55;66.93;;;;;;;2.46;59.81;94389.63;524029;28;836;-64
2024/01/24 00:13:18;;;;;;;110.47;65.77;;;;;;;2.45;59.52;94386.16;523998;28;816;-64
2024/01/24 00:13:33;;;;;;;108.10;64.30;;;;;;;2.46;59.54;94393.13;523979;28;914;-64
2024/01/24 00:13:49;;;;;;;108.83;64.57;;;;;;;2.47;59.60;94391.88;524042;28;799;-64
2024/01/24 00:14:05;;;;;;;109.68;64.05;;;;;;;2.48;59.65;94396.13;523860;28;858;-64
2024/01/24 00:14:20;;;;;;;107.93;63.90;;;;;;;2.49;59.64;94399.59;523988;28;831;-64
2024/01/24 00:14:35;;;;;;;106.63;63.80;;;;;;;2.50;59.92;94390.19;523983;28;772;-64
2024/01/24 00:14:51;;;;;;;101.63;61.75;;;;;;;2.49;59.65;94394.16;523987;28;791;-64
2024/01/24 00:15:07;;;;;;;93.73;59.43;;;;;;;2.46;59.29;94393.13;523877;28;847;-64
2024/01/24 00:15:22;;;;;;;90.25;58.42;;;;;;;2.43;59.16;94399.50;524043;28;808;-64
2024/01/24 00:15:38;;;;;;;87.78;56.42;;;;;;;2.41;59.43;94396.50;524047;28;870;-64
2024/01/24 00:15:53;;;;;;;85.23;54.07;;;;;;;2.42;59.41;94394.53;523798;28;1992;-64
2024/01/24 00:16:09;;;;;;;84.95;52.83;;;;;;;2.40;59.06;94395.00;523880;28;826;-64
2024/01/24 00:16:24;;;;;;;89.90;54.53;;;;;;;2.41;59.85;94390.28;523790;28;887;-64
2024/01/24 00:16:40;;;;;;;92.18;57.17;;;;;;;2.43;59.17;94396.78;523926;28;918;-64
2024/01/24 00:16:56;;;;;;;96.38;59.50;;;;;;;2.44;59.76;94394.81;523720;28;882;-64
2024/01/24 00:17:11;;;;;;;99.27;60.53;;;;;;;2.45;59.83;94394.31;523874;28;828;-64
2024/01/24 00:17:27;;;;;;;92.47;57.83;;;;;;;2.46;59.60;94389.63;523788;28;871;-64
2024/01/24 00:17:42;;;;;;;87.60;55.80;;;;;;;2.46;59.49;94393.13;523831;28;859;-64
2024/01/24 00:17:58;;;;;;;88.10;55.87;;;;;;;2.48;59.39;94393.38;523752;28;785;-64
2024/01/24 00:18:13;;;;;;;84.50;54.45;;;;;;;2.50;59.71;94392.91;523869;28;836;-64
2024/01/24 00:18:28;;;;;;;87.00;55.42;;;;;;;2.49;59.89;94392.16;523983;28;874;-64
2024/01/24 00:18:44;;;;;;;96.03;57.97;;;;;;;2.50;59.87;94390.94;524023;28;820;-64
2024/01/24 00:18:59;;;;;;;96.70;57.77;;;;;;;2.51;59.07;94395.19;523922;28;840;-64
2024/01/24 00:19:17;;;;;;;90.35;57.40;;;;;;;2.52;59.60;94396.66;523877;28;827;-64
2024/01/24 00:19:33;;;;;;;93.28;59.70;;;;;;;2.54;59.34;94399.66;523993;28;855;-64
2024/01/24 00:19:49;;;;;;;98.43;60.20;;;;;;;2.54;59.44;94391.50;524088;28;942;-64
2024/01/24 00:20:05;;;;;;;99.17;60.27;;;;;;;2.54;59.33;94393.47;523881;28;784;-64
2024/01/24 00:20:21;;;;;;;96.22;60.58;;;;;;;2.55;59.63;94390.28;523945;28;866;-64
2024/01/24 00:20:36;;;;;;;103.50;63.73;;;;;;;2.55;59.97;94394.97;523918;28;844;-64
2024/01/24 00:20:54;;;;;;;119.50;71.82;;;;;;;2.54;59.66;94388.00;524005;28;768;-64
2024/01/24 00:21:09;;;;;;;118.93;71.03;;;;;;;2.54;59.81;94386.03;523913;28;895;-64
2024/01/24 00:21:24;;;;;;;100.45;61.63;;;;;;;2.52;59.44;94391.22;523943;28;781;-64
2024/01/24 00:21:40;;;;;;;90.43;58.10;;;;;;;2.51;59.47;94394.44;523996;28;890;-64
2024/01/24 00:21:56;;;;;;;77.23;50.37;;;;;;;2.49;58.94;94397.59;523905;28;895;-64
2024/01/24 00:22:12;;;;;;;62.77;40.83;;;;;;;2.49;59.23;94394.88;524035;28;804;-64
2024/01/24 00:22:27;;;;;;;58.90;38.28;;;;;;;2.47;59.39;94391.16;523969;28;851;-64
2024/01/24 00:22:43;;;;;;;56.78;36.95;;;;;;;2.49;59.50;94396.88;523965;28;867;-64
2024/01/24 00:22:58;;;;;;;53.87;35.60;;;;;;;2.48;59.53;94393.38;523962;28;856;-64
2024/01/24 00:23:14;;;;;;;51.28;35.28;;;;;;;2.49;58.97;94396.88;523918;28;784;-64
2024/01/24 00:23:29;;;;;;;54.60;35.80;;;;;;;2.48;59.68;94396.13;523994;28;835;-64
2024/01/24 00:23:45;;;;;;;56.40;35.47;;;;;;;2.47;59.30;94396.59;523969;28;812;-65
2024/01/24 00:24:00;;;;;;;52.17;33.73;;;;;;;2.46;59.63;94393.13;523973;28;811;-64
2024/01/24 00:24:16;;;;;;;50.78;33.17;;;;;;;2.47;59.46;94391.16;523892;28;910;-64
2024/01/24 00:24:31;;;;;;;45.50;31.17;;;;;;;2.48;59.40;94396.13;523920;28;830;-64
2024/01/24 00:24:47;;;;;;;42.03;29.67;;;;;;;2.50;59.22;94401.09;523943;28;781;-64
2024/01/24 00:25:02;;;;;;;43.40;30.63;;;;;;;2.50;58.94;94396.41;523981;28;778;-64
2024/01/24 00:25:18;;;;;;;43.90;30.83;;;;;;;2.50;59.53;94392.91;523998;28;851;-64
2024/01/24 00:25:33;;;;;;;39.00;27.20;;;;;;;2.52;58.95;94393.19;524032;28;839;-64
2024/01/24 00:25:49;;;;;;;30.20;22.02;;;;;;;2.47;59.29;94391.16;523953;28;795;-64
2024/01/24 00:26:04;;;;;;;32.47;21.90;;;;;;;2.53;58.91;94402.88;523879;28;815;-64
2024/01/24 00:26:19;;;;;;;38.97;24.50;;;;;;;2.53;58.95;94397.44;524053;28;907;-64
2024/01/24 00:26:38;;;;;;;41.13;26.63;;;;;;;2.47;59.41;94391.88;523941;28;839;-63
2024/01/24 00:26:53;;;;;;;41.95;27.75;;;;;;;2.52;59.40;94402.13;523641;28;2286;-64
2024/01/24 00:27:09;;;;;;;45.65;30.83;;;;;;;2.51;59.68;94403.38;523810;28;768;-64
2024/01/24 00:27:24;;;;;;;51.27;35.10;;;;;;;2.50;58.87;94398.38;523737;28;796;-64
2024/01/24 00:27:40;;;;;;;59.15;39.17;;;;;;;2.47;59.24;94397.34;523725;28;897;-64
2024/01/24 00:27:55;;;;;;;64.87;41.50;;;;;;;2.44;59.91;94395.56;523795;28;795;-64
2024/01/24 00:28:12;;;;;;;66.72;42.28;;;;;;;2.41;59.51;94401.94;523862;28;773;-64
2024/01/24 00:28:27;;;;;;;67.35;41.58;;;;;;;2.37;60.06;94393.22;522395;28;943;-64
2024/01/24 00:28:43;;;;;;;61.88;40.88;;;;;;;2.36;60.40;94396.44;522156;28;831;-64
2024/01/24 00:28:59;;;;;;;62.50;41.03;;;;;;;2.34;60.39;94405.06;523781;28;852;-64
2024/01/24 00:29:14;;;;;;;62.15;40.60;;;;;;;2.32;60.43;94398.59;523699;28;811;-64
2024/01/24 00:29:30;;;;;;;62.97;41.03;;;;;;;2.27;60.64;94397.28;523749;28;932;-64
2024/01/24 00:29:45;;;;;;;70.23;42.17;;;;;;;2.25;60.55;94397.75;523771;28;847;-64
2024/01/24 00:30:01;;;;;;;69.28;42.53;;;;;;;2.20;61.36;94395.69;523743;28;946;-64
2024/01/24 00:30:16;;;;;;;63.67;42.70;;;;;;;2.19;61.09;94401.59;521946;28;2177;-64
2024/01/24 00:30:32;;;;;;;64.30;42.97;;;;;;;2.03;61.48;94386.53;523868;28;811;-64
2024/01/24 00:30:47;;;;;;;70.13;43.87;;;;;;;2.16;61.00;94406.03;523752;28;737;-64
2024/01/24 00:31:03;;;;;;;65.43;42.38;;;;;;;2.15;61.01;94407.25;523817;28;898;-64
2024/01/24 00:31:18;;;;;;;54.67;36.65;;;;;;;2.17;61.02;94409.50;523805;28;847;-64
2024/01/24 00:31:34;;;;;;;52.73;34.07;;;;;;;2.15;61.04;94401.03;523710;28;781;-64
2024/01/24 00:31:49;;;;;;;55.88;36.08;;;;;;;2.20;60.94;94409.31;523878;28;847;-64
2024/01/24 00:32:05;;;;;;;59.47;38.43;;;;;;;2.21;61.30;94408.09;523729;28;874;-63
2024/01/24 00:32:21;;;;;;;56.10;37.53;;;;;;;2.22;61.03;94414.28;524017;28;882;-64
2024/01/24 00:32:37;;;;;;;54.78;37.15;;;;;;;2.23;60.70;94415.81;523972;28;875;-64
2024/01/24 00:32:52;;;;;;;59.13;39.03;;;;;;;2.23;60.63;94416.53;523912;28;827;-64
2024/01/24 00:33:08;;;;;;;64.23;42.07;;;;;;;2.24;61.21;94420.03;523953;28;800;-64
2024/01/24 00:33:25;;;;;;;63.92;42.20;;;;;;;2.24;60.97;94411.84;523984;28;918;-64
2024/01/24 00:33:41;;;;;;;61.72;41.08;;;;;;;2.20;61.54;94408.56;523999;28;906;-64
2024/01/24 00:33:57;;;;;;;64.87;41.00;;;;;;;2.16;61.93;94416.19;523897;28;887;-64
2024/01/24 00:34:12;;;;;;;67.22;41.28;;;;;;;2.11;61.63;94414.09;523912;28;815;-64
2024/01/24 00:34:28;;;;;;;65.77;41.53;;;;;;;2.05;62.11;94419.47;523932;28;816;-64
2024/01/24 00:34:43;;;;;;;63.17;40.65;;;;;;;2.02;62.36;94411.47;523983;28;863;-64
2024/01/24 00:34:59;;;;;;;61.20;38.90;;;;;;;2.02;62.25;94416.94;523942;28;838;-64
2024/01/24 00:35:15;;;;;;;62.20;39.38;;;;;;;2.03;62.22;94410.28;523914;28;843;-64
2024/01/24 00:35:30;;;;;;;61.88;39.45;;;;;;;2.04;62.42;94414.47;523931;28;848;-64
2024/01/24 00:35:46;;;;;;;60.17;38.07;;;;;;;2.05;61.59;94414.03;523982;28;808;-64
2024/01/24 00:36:01;;;;;;;52.10;34.83;;;;;;;2.04;62.19;94414.47;523889;28;1973;-64
2024/01/24 00:36:17;;;;;;;46.67;31.37;;;;;;;2.05;61.50;94416.75;523911;28;781;-64
2024/01/24 00:36:32;;;;;;;49.80;32.38;;;;;;;2.06;61.94;94404.63;524058;28;784;-64
2024/01/24 00:36:49;;;;;;;55.63;35.83;;;;;;;1.86;61.72;94377.31;523900;28;812;-64
2024/01/24 00:37:05;;;;;;;55.90;36.92;;;;;;;2.12;61.80;94410.19;523843;28;939;-64
2024/01/24 00:37:20;;;;;;;49.35;32.70;;;;;;;2.13;61.88;94412.41;523985;28;805;-64
2024/01/24 00:37:36;;;;;;;44.30;29.73;;;;;;;2.16;61.15;94410.72;523843;28;756;-64
2024/01/24 00:37:51;;;;;;;43.63;29.60;;;;;;;2.18;61.13;94400.88;523977;28;804;-64
2024/01/24 00:38:07;;;;;;;43.63;29.03;;;;;;;2.21;61.30;94410.06;523903;28;840;-64
2024/01/24 00:38:22;;;;;;;44.63;29.88;;;;;;;2.23;61.37;94411.09;523894;28;792;-64
2024/01/24 00:38:38;;;;;;;44.40;30.43;;;;;;;2.25;61.52;94411.38;524013;28;898;-64
2024/01/24 00:38:53;;;;;;;44.97;31.90;;;;;;;2.27;61.45;94413.63;523946;28;780;-64
2024/01/24 00:39:09;;;;;;;47.57;32.40;;;;;;;2.29;61.33;94411.94;523952;28;851;-64
2024/01/24 00:39:24;;;;;;;47.22;31.63;;;;;;;2.31;61.55;94411.47;523849;28;913;-63
2024/01/24 00:39:40;;;;;;;49.55;32.97;;;;;;;2.34;60.78;94415.22;523850;28;870;-64
2024/01/24 00:39:56;;;;;;;50.33;31.87;;;;;;;2.35;61.34;94416.72;523830;28;824;-64
2024/01/24 00:40:12;;;;;;;48.08;31.38;;;;;;;2.35;61.41;94412.03;523991;28;899;-64
2024/01/24 00:40:27;;;;;;;46.78;31.25;;;;;;;2.35;60.87;94412.03;523912;28;1070;-64
2024/01/24 00:40:43;;;;;;;43.67;29.63;;;;;;;2.28;61.25;94401.50;523998;28;779;-64
2024/01/24 00:40:58;;;;;;;43.88;30.63;;;;;;;2.37;61.52;94401.41;523965;28;776;-64
2024/01/24 00:41:13;;;;;;;44.87;31.40;;;;;;;2.34;61.18;94407.06;523893;28;776;-64
2024/01/24 00:41:29;;;;;;;44.47;30.47;;;;;;;2.38;61.24;94418.50;523938;28;800;-64
2024/01/24 00:41:46;;;;;;;44.88;31.42;;;;;;;2.36;61.15;94418.22;523921;28;808;-64
2024/01/24 00:42:02;;;;;;;45.22;32.17;;;;;;;2.36;61.42;94416.22;523950;28;829;-64
2024/01/24 00:42:17;;;;;;;46.50;31.10;;;;;;;2.37;61.37;94414.28;523930;28;788;-64
2024/01/24 00:42:33;;;;;;;47.83;31.00;;;;;;;2.39;60.99;94417.28;523925;28;844;-64
2024/01/24 00:42:48;;;;;;;47.22;31.25;;;;;;;2.39;61.15;94420.00;523910;28;1092;-64
2024/01/24 00:43:05;;;;;;;45.47;30.87;;;;;;;2.39;61.38;94418.03;523900;28;859;-64
2024/01/24 00:43:21;;;;;;;45.50;31.05;;;;;;;2.40;61.30;94416.81;524041;28;836;-64
2024/01/24 00:43:36;;;;;;;44.47;29.85;;;;;;;2.42;60.72;94417.09;523830;28;954;-64
2024/01/24 00:43:52;;;;;;;42.53;28.57;;;;;;;2.43;60.92;94415.09;523918;28;868;-64
2024/01/24 00:44:07;;;;;;;43.58;27.92;;;;;;;2.43;61.03;94418.59;523860;28;997;-64
2024/01/24 00:44:23;;;;;;;42.53;27.00;;;;;;;2.42;61.14;94419.81;524002;28;791;-64
2024/01/24 00:44:42;;;;;;;42.63;28.15;;;;;;;2.36;60.91;94410.06;523832;28;826;-64
2024/01/24 00:44:57;;;;;;;41.53;28.60;;;;;;;2.36;60.98;94418.97;523710;28;836;-64
2024/01/24 00:45:13;;;;;;;42.20;29.48;;;;;;;2.33;61.32;94413.72;523766;28;844;-64
2024/01/24 00:45:29;;;;;;;45.70;30.27;;;;;;;2.29;61.08;94411.94;523761;28;781;-64
2024/01/24 00:45:44;;;;;;;45.15;29.65;;;;;;;2.22;61.38;94408.84;523725;28;1035;-64
2024/01/24 00:46:00;;;;;;;45.07;28.53;;;;;;;2.28;61.73;94415.88;523808;28;740;-64
2024/01/24 00:46:15;;;;;;;43.83;28.27;;;;;;;2.29;61.48;94408.47;523746;28;863;-64
2024/01/24 00:46:31;;;;;;;41.20;27.87;;;;;;;2.31;61.74;94414.19;523805;28;783;-64
2024/01/24 00:46:46;;;;;;;41.15;27.30;;;;;;;2.34;61.17;94409.78;523684;28;787;-63
2024/01/24 00:47:02;;;;;;;43.20;28.37;;;;;;;2.33;61.20;94419.91;523948;28;796;-64
2024/01/24 00:47:18;;;;;;;43.88;28.90;;;;;;;2.36;61.15;94415.50;523953;28;919;-64
2024/01/24 00:47:34;;;;;;;41.92;28.45;;;;;;;2.37;61.63;94415.03;523931;28;828;-64
2024/01/24 00:47:49;;;;;;;41.92;28.83;;;;;;;2.21;61.56;94391.75;523981;28;943;-64
2024/01/24 00:48:06;;;;;;;41.67;28.63;;;;;;;2.38;61.15;94411.09;523800;28;756;-64
2024/01/24 00:48:21;;;;;;;44.22;29.48;;;;;;;2.38;61.31;94415.78;523969;28;840;-64
2024/01/24 00:48:37;;;;;;;47.23;30.87;;;;;;;2.32;61.30;94412.22;523886;28;769;-64
2024/01/24 00:48:52;;;;;;;45.15;30.52;;;;;;;2.30;61.17;94410.72;524008;28;776;-64
2024/01/24 00:49:12;;;;;;;44.63;31.00;;;;;;;2.28;61.65;94415.13;523954;28;859;-63
2024/01/24 00:49:29;;;;;;;46.97;33.10;;;;;;;2.27;61.54;94414.38;523798;28;851;-64
2024/01/24 00:49:45;;;;;;;47.55;32.75;;;;;;;2.29;61.64;94413.91;523810;28;890;-64
2024/01/24 00:50:00;;;;;;;48.13;32.93;;;;;;;2.28;61.49;94412.41;523748;28;836;-63
2024/01/24 00:50:16;;;;;;;50.93;33.90;;;;;;;2.32;61.49;94409.50;523725;28;934;-64
2024/01/24 00:50:32;;;;;;;52.97;35.42;;;;;;;2.34;61.53;94415.97;523766;28;780;-64
2024/01/24 00:50:47;;;;;;;51.55;35.70;;;;;;;2.35;60.92;94412.03;523687;28;824;-64
2024/01/24 00:51:03;;;;;;;52.00;36.20;;;;;;;2.38;60.99;94418.50;523765;28;954;-64
2024/01/24 00:51:18;;;;;;;54.28;36.83;;;;;;;2.39;61.58;94415.31;523773;28;788;-64
2024/01/24 00:51:34;;;;;;;55.23;36.47;;;;;;;2.40;61.48;94411.38;523790;28;816;-64
2024/01/24 00:51:49;;;;;;;55.83;37.45;;;;;;;2.42;60.88;94411.66;523936;28;856;-64
2024/01/24 00:52:05;;;;;;;58.17;37.63;;;;;;;2.43;61.11;94409.66;523832;28;812;-64
2024/01/24 00:52:20;;;;;;;55.85;37.58;;;;;;;2.43;60.99;94404.94;523946;28;807;-63
2024/01/24 00:52:36;;;;;;;51.53;37.33;;;;;;;2.45;61.28;94418.13;523888;28;859;-64
2024/01/24 00:52:55;;;;;;;51.35;36.40;;;;;;;2.45;61.28;94413.41;523989;28;900;-64
2024/01/24 00:53:15;;;;;;;53.50;36.83;;;;;;;2.48;60.88;94409.00;523967;28;867;-64
2024/01/24 00:53:33;;;;;;;51.97;36.90;;;;;;;2.48;60.97;94409.75;523800;28;839;-64
2024/01/24 00:53:53;;;;;;;52.28;35.80;;;;;;;2.50;60.85;94409.25;523724;28;938;-64
2024/01/24 00:54:08;;;;;;;51.72;36.65;;;;;;;2.50;60.85;94412.75;523756;28;895;-64
2024/01/24 00:54:24;;;;;;;53.57;36.60;;;;;;;2.48;60.68;94407.03;523782;28;911;-64
2024/01/24 00:54:39;;;;;;;53.20;36.35;;;;;;;2.44;60.91;94408.44;523678;28;788;-64
2024/01/24 00:54:55;;;;;;;51.33;36.27;;;;;;;2.48;60.51;94406.25;523702;28;784;-64
2024/01/24 00:55:10;;;;;;;51.67;36.15;;;;;;;2.47;60.81;94407.50;523722;28;839;-64
2024/01/24 00:55:27;;;;;;;54.50;37.27;;;;;;;2.47;60.22;94407.50;523827;28;847;-64
2024/01/24 00:55:43;;;;;;;54.67;37.72;;;;;;;2.47;60.27;94408.22;523944;28;836;-64
2024/01/24 00:55:59;;;;;;;54.70;37.30;;;;;;;2.31;61.08;94384.22;523910;28;1914;-64
2024/01/24 00:56:14;;;;;;;57.20;37.20;;;;;;;2.50;60.52;94403.81;523860;28;855;-64
2024/01/24 00:56:30;;;;;;;57.42;37.22;;;;;;;2.51;60.84;94408.06;523887;28;851;-64
2024/01/24 00:56:45;;;;;;;56.70;37.73;;;;;;;2.53;60.74;94403.63;523899;28;855;-64
2024/01/24 00:57:01;;;;;;;55.77;38.20;;;;;;;2.53;61.03;94414.53;523894;28;1041;-64
2024/01/24 00:57:16;;;;;;;56.88;39.00;;;;;;;2.54;60.89;94412.53;523869;28;836;-64
2024/01/24 00:57:32;;;;;;;59.60;39.83;;;;;;;2.54;60.91;94407.09;523977;28;832;-64
2024/01/24 00:57:47;;;;;;;61.63;40.17;;;;;;;2.53;60.79;94409.09;523789;28;886;-64
2024/01/24 00:58:03;;;;;;;61.33;40.33;;;;;;;2.55;60.27;94405.88;523894;28;808;-64
2024/01/24 00:58:19;;;;;;;57.35;39.50;;;;;;;2.54;60.33;94401.63;523944;28;836;-64
2024/01/24 00:58:34;;;;;;;55.03;38.03;;;;;;;2.42;60.42;94387.13;523908;28;816;-64
2024/01/24 00:58:50;;;;;;;56.10;38.03;;;;;;;2.55;60.15;94403.91;524004;28;808;-64
2024/01/24 00:59:05;;;;;;;56.78;39.08;;;;;;;2.44;60.48;94387.38;523767;28;780;-64
2024/01/24 00:59:20;;;;;;;57.03;39.03;;;;;;;2.57;60.35;94406.91;523945;28;823;-63
2024/01/24 00:59:36;;;;;;;58.13;38.45;;;;;;;2.58;59.85;94402.94;523826;28;926;-64
2024/01/24 00:59:51;;;;;;;56.73;37.73;;;;;;;2.55;60.20;94398.47;523905;28;740;-64
2024/01/24 01:00:08;;;;;;;55.65;37.28;;;;;;;2.59;60.02;94406.44;523815;28;780;-64
2024/01/24 01:00:24;;;;;;;57.30;37.88;;;;;;;2.59;60.32;94404.47;523909;28;898;-64
2024/01/24 01:00:40;;;;;;;55.65;37.35;;;;;;;2.60;59.95;94397.78;523881;28;874;-64
2024/01/24 01:00:55;;;;;;;56.00;37.00;;;;;;;2.59;59.96;94404.47;523897;28;902;-64
2024/01/24 01:01:11;;;;;;;56.83;37.47;;;;;;;2.56;59.50;94402.66;523919;28;811;-64
2024/01/24 01:01:27;;;;;;;54.67;37.97;;;;;;;2.54;59.67;94402.41;523856;28;910;-64
2024/01/24 01:01:42;;;;;;;51.80;37.73;;;;;;;2.54;60.14;94404.38;523969;28;772;-64
2024/01/24 01:01:57;;;;;;;50.00;36.10;;;;;;;2.52;59.85;94410.28;523747;28;804;-64
2024/01/24 01:02:13;;;;;;;51.22;35.80;;;;;;;2.51;60.63;94408.81;523925;28;847;-63
2024/01/24 01:02:29;;;;;;;54.47;35.03;;;;;;;2.52;60.57;94401.38;523909;28;875;-64
2024/01/24 01:02:44;;;;;;;54.15;34.78;;;;;;;2.50;60.32;94401.84;523842;28;877;-64
2024/01/24 01:03:00;;;;;;;53.20;36.13;;;;;;;2.49;59.99;94400.34;523893;28;827;-64
2024/01/24 01:03:15;;;;;;;52.73;35.60;;;;;;;2.51;60.46;94400.63;523801;28;780;-64
2024/01/24 01:03:31;;;;;;;53.75;35.28;;;;;;;2.52;59.92;94404.09;523931;28;1078;-64
2024/01/24 01:03:47;;;;;;;52.87;36.00;;;;;;;2.52;60.36;94402.13;523802;28;1096;-64
2024/01/24 01:04:04;;;;;;;51.63;36.38;;;;;;;2.53;60.10;94398.19;523894;28;910;-64
2024/01/24 01:04:19;;;;;;;52.55;36.53;;;;;;;2.53;60.39;94395.47;523942;28;878;-64
2024/01/24 01:04:34;;;;;;;53.37;36.77;;;;;;;2.54;60.41;94394.22;523944;28;1238;-64
2024/01/24 01:04:50;;;;;;;50.50;34.47;;;;;;;2.54;60.49;94402.41;525973;28;803;-64
2024/01/24 01:05:06;;;;;;;49.37;33.47;;;;;;;2.54;60.16;94401.63;525919;28;850;-64
2024/01/24 01:05:21;;;;;;;48.42;33.88;;;;;;;2.50;60.53;94401.09;525818;28;1247;-64
2024/01/24 01:05:37;;;;;;;47.30;33.25;;;;;;;2.44;60.68;94401.03;525974;28;907;-64
2024/01/24 01:05:53;;;;;;;47.85;33.55;;;;;;;2.41;60.63;94398.47;526009;28;862;-64
2024/01/24 01:06:08;;;;;;;50.10;34.87;;;;;;;2.39;60.67;94400.91;525931;28;802;-64
2024/01/24 01:06:26;;;;;;;50.17;34.42;;;;;;;2.37;60.89;94401.41;525991;28;803;-64
2024/01/24 01:06:41;;;;;;;48.05;33.17;;;;;;;2.35;60.65;94405.81;526098;28;1022;-64
2024/01/24 01:06:57;;;;;;;46.05;33.05;;;;;;;2.32;61.24;94393.88;525898;28;807;-64
2024/01/24 01:07:12;;;;;;;44.73;31.80;;;;;;;2.31;61.02;94400.56;526030;28;1037;-64
2024/01/24 01:07:27;;;;;;;45.40;31.63;;;;;;;2.31;61.17;94411.47;525865;28;908;-64
2024/01/24 01:07:43;;;;;;;47.83;33.22;;;;;;;2.33;61.19;94408.25;526001;28;768;-64
2024/01/24 01:07:58;;;;;;;48.40;33.60;;;;;;;2.33;60.95;94408.25;525982;28;866;-64
2024/01/24 01:08:14;;;;;;;48.30;33.50;;;;;;;2.35;60.76;94408.53;525978;28;819;-64
2024/01/24 01:08:29;;;;;;;48.47;33.17;;;;;;;2.35;61.19;94406.56;525981;28;875;-64
2024/01/24 01:08:45;;;;;;;46.58;32.65;;;;;;;2.34;60.95;94405.06;525960;28;744;-64
2024/01/24 01:09:00;;;;;;;45.97;32.50;;;;;;;2.35;60.89;94398.41;525857;28;853;-64
2024/01/24 01:09:16;;;;;;;48.38;32.35;;;;;;;2.34;61.10;94402.34;525944;28;804;-64
2024/01/24 01:09:31;;;;;;;49.37;33.23;;;;;;;2.32;61.42;94407.50;526090;28;771;-64
2024/01/24 01:09:47;;;;;;;48.50;34.15;;;;;;;2.29;61.32;94403.78;525882;28;847;-64
2024/01/24 01:10:03;;;;;;;49.00;33.93;;;;;;;2.28;61.46;94406.94;525982;28;760;-64
2024/01/24 01:10:18;;;;;;;50.95;33.72;;;;;;;2.29;61.62;94409.22;525894;28;1538;-63
2024/01/24 01:10:34;;;;;;;50.47;32.90;;;;;;;2.30;61.51;94402.53;525947;28;812;-64
2024/01/24 01:10:49;;;;;;;47.03;32.20;;;;;;;2.33;61.07;94409.03;525924;28;843;-64
2024/01/24 01:11:07;;;;;;;48.03;33.63;;;;;;;2.35;61.43;94392.19;525980;28;773;-64
2024/01/24 01:11:23;;;;;;;49.83;34.33;;;;;;;2.36;61.42;94397.16;526031;28;820;-64
2024/01/24 01:11:38;;;;;;;49.30;34.33;;;;;;;2.37;61.38;94404.13;525841;28;1066;-64
2024/01/24 01:11:54;;;;;;;50.60;33.65;;;;;;;2.40;60.89;94399.72;525976;28;777;-64
2024/01/24 01:12:09;;;;;;;53.27;34.27;;;;;;;2.41;61.68;94398.47;525982;28;839;-64
2024/01/24 01:12:25;;;;;;;50.10;34.75;;;;;;;2.42;60.96;94399.97;525950;28;906;-64
2024/01/24 01:12:40;;;;;;;49.30;33.43;;;;;;;2.42;61.51;94399.97;526035;28;764;-64
2024/01/24 01:12:55;;;;;;;48.33;32.20;;;;;;;2.43;60.84;94402.22;525866;28;910;-64
2024/01/24 01:13:11;;;;;;;44.23;31.17;;;;;;;2.42;60.77;94397.25;526002;28;795;-64
2024/01/24 01:13:26;;;;;;;46.47;31.13;;;;;;;2.41;60.94;94404.69;525896;28;816;-64
2024/01/24 01:13:42;;;;;;;46.77;30.93;;;;;;;2.39;60.81;94404.41;526084;28;756;-64
2024/01/24 01:13:57;;;;;;;43.87;30.37;;;;;;;2.37;61.15;94409.56;525866;28;800;-64
2024/01/24 01:14:13;;;;;;;45.28;31.13;;;;;;;2.37;61.19;94409.56;526013;28;844;-64
2024/01/24 01:14:28;;;;;;;45.57;32.17;;;;;;;2.17;61.01;94368.63;525906;28;772;-64
2024/01/24 01:14:44;;;;;;;45.22;33.22;;;;;;;2.39;60.87;94403.66;525982;28;828;-64
2024/01/24 01:14:59;;;;;;;45.43;32.93;;;;;;;2.40;61.70;94396.97;525818;28;838;-64
2024/01/24 01:15:15;;;;;;;48.28;32.80;;;;;;;2.40;60.74;94405.91;525936;28;855;-64
2024/01/24 01:15:30;;;;;;;52.47;34.30;;;;;;;2.41;61.13;94404.69;525968;28;874;-64